No particular awareness of the weather is required.    There are no Weather-warnings


Meteo18 Weather Cam more information Meteo18 Weather Cam


Thunder radar more information blitzortung!


Rain radar more information rain snow radar


Visit our other weather sites:

Template documentation
and downloads

And another site



Weather Underground History page Text

Daily Summary for October 21, 2017 Units:  Both    English   Metric
« Previous Day
Next Day »
Daily Weekly Monthly Yearly Custom
  High: Low: Average:
Temperature: TemperatureC °F /  -17.8 °C 10.3 °F /  -12.1 °C 12.9 °F /  -10.6 °C
Dew Point: DewpointC °F /  -17.8 °C 7.5 °F /  -13.6 °C 10.9 °F /  -11.7 °C
Humidity: Humidity % 74 % 87 %
Wind Speed: WindSpeedKMH mph /  0 km/h - 7.4 mph /  11.9 km/h
Wind Gust: WindSpeedGustKMH mph /  0 km/h - -
Wind:- - SW
Pressure: PressurehPa in /  0 hPa 1015.8 in /  34395 hPa -
Precipitation: 1.3 in /  33.02 mm    
Historical Graphs
 
 
Tabular Data for October 21, 2017
Time Temperature Dew Point Pressure Wind Wind Speed Wind Gust Humidity Rainfall Rate (Hourly)
TemperatureC °F /  -17.8 °C DewpointC °F /  -17.8 °C PressurehPa in /  0 hPa Calm     Humidity % HourlyPrecipMM in /  0 mm
00:02 12.0 °F /  -11.1 °C 11.2 °F /  -11.6 °C 1017.5 in /  34452.6 hPa SW 1.6 mph /  2.6 km/h 1.6 mph /  2.6 km/h 95 % 0.0 in /  0 mm
00:07 12.2 °F /  -11 °C 11.4 °F /  -11.4 °C 1017.5 in /  34452.6 hPa SW 3.2 mph /  5.1 km/h 4.8 mph /  7.7 km/h 95 % 0.0 in /  0 mm
00:12 12.2 °F /  -11 °C 11.4 °F /  -11.4 °C 1017.5 in /  34452.6 hPa SW 3.2 mph /  5.1 km/h 6.4 mph /  10.3 km/h 95 % 0.0 in /  0 mm
00:17 12.4 °F /  -10.9 °C 11.6 °F /  -11.3 °C 1017.5 in /  34452.6 hPa SW 4.8 mph /  7.7 km/h 6.4 mph /  10.3 km/h 95 % 0.0 in /  0 mm
00:22 12.7 °F /  -10.7 °C 11.9 °F /  -11.2 °C 1017.5 in /  34452.6 hPa SW 6.4 mph /  10.3 km/h 9.7 mph /  15.6 km/h 95 % 0.0 in /  0 mm
00:32 12.9 °F /  -10.6 °C 12.0 °F /  -11.1 °C 1017.5 in /  34452.6 hPa SW 6.4 mph /  10.3 km/h 11.3 mph /  18.2 km/h 94 % 0.0 in /  0 mm
00:42 12.9 °F /  -10.6 °C 11.8 °F /  -11.2 °C 1017.5 in /  34452.6 hPa SW 8.0 mph /  12.9 km/h 11.3 mph /  18.2 km/h 93 % 0.0 in /  0 mm
00:47 12.9 °F /  -10.6 °C 11.8 °F /  -11.2 °C 1017.5 in /  34452.6 hPa SSW 6.4 mph /  10.3 km/h 11.3 mph /  18.2 km/h 93 % 0.0 in /  0 mm
00:52 12.8 °F /  -10.7 °C 11.7 °F /  -11.3 °C 1017.5 in /  34452.6 hPa SW 8.0 mph /  12.9 km/h 9.7 mph /  15.6 km/h 93 % 0.0 in /  0 mm
00:57 12.8 °F /  -10.7 °C 11.7 °F /  -11.3 °C 1017.5 in /  34452.6 hPa SW 4.8 mph /  7.7 km/h 9.7 mph /  15.6 km/h 93 % 0.0 in /  0 mm
01:07 12.8 °F /  -10.7 °C 11.7 °F /  -11.3 °C 1017.2 in /  34442.4 hPa SW 3.2 mph /  5.1 km/h 9.7 mph /  15.6 km/h 93 % 0.0 in /  0 mm
01:12 12.8 °F /  -10.7 °C 11.7 °F /  -11.3 °C 1017.2 in /  34442.4 hPa SSW 1.6 mph /  2.6 km/h 6.4 mph /  10.3 km/h 93 % 0.0 in /  0 mm
01:17 12.7 °F /  -10.7 °C 11.6 °F /  -11.3 °C 1017.2 in /  34442.4 hPa SSW 1.6 mph /  2.6 km/h 6.4 mph /  10.3 km/h 93 % 0.0 in /  0 mm
01:22 12.6 °F /  -10.8 °C 11.7 °F /  -11.3 °C 1017.2 in /  34442.4 hPa SSW 1.6 mph /  2.6 km/h 4.8 mph /  7.7 km/h 94 % 0.0 in /  0 mm
01:32 12.4 °F /  -10.9 °C 11.5 °F /  -11.4 °C 1017.2 in /  34442.4 hPa SSW 1.6 mph /  2.6 km/h 4.8 mph /  7.7 km/h 94 % 0.0 in /  0 mm
01:37 12.3 °F /  -10.9 °C 11.4 °F /  -11.4 °C 1017.2 in /  34442.4 hPa SSW 1.6 mph /  2.6 km/h 4.8 mph /  7.7 km/h 94 % 0.0 in /  0 mm
01:42 12.2 °F /  -11 °C 11.3 °F /  -11.5 °C 1017.2 in /  34442.4 hPa SSW 1.6 mph /  2.6 km/h 4.8 mph /  7.7 km/h 94 % 0.0 in /  0 mm
01:52 12.0 °F /  -11.1 °C 11.1 °F /  -11.6 °C 1017.2 in /  34442.4 hPa SSW 3.2 mph /  5.1 km/h 3.2 mph /  5.1 km/h 94 % 0.0 in /  0 mm
01:57 12.1 °F /  -11.1 °C 11.3 °F /  -11.5 °C 1017.2 in /  34442.4 hPa SSW 3.2 mph /  5.1 km/h 3.2 mph /  5.1 km/h 95 % 0.0 in /  0 mm
02:07 12.1 °F /  -11.1 °C 11.3 °F /  -11.5 °C 1016.8 in /  34428.8 hPa SSE 1.6 mph /  2.6 km/h 4.8 mph /  7.7 km/h 95 % 0.0 in /  0 mm
02:12 12.1 °F /  -11.1 °C 11.3 °F /  -11.5 °C 1016.8 in /  34428.8 hPa SW 1.6 mph /  2.6 km/h 4.8 mph /  7.7 km/h 95 % 0.0 in /  0 mm
02:17 12.1 °F /  -11.1 °C 11.3 °F /  -11.5 °C 1016.8 in /  34428.8 hPa SSW 1.6 mph /  2.6 km/h 4.8 mph /  7.7 km/h 95 % 0.0 in /  0 mm
02:22 12.0 °F /  -11.1 °C 11.2 °F /  -11.6 °C 1016.8 in /  34428.8 hPa SW 3.2 mph /  5.1 km/h 4.8 mph /  7.7 km/h 95 % 0.0 in /  0 mm
02:32 12.0 °F /  -11.1 °C 11.2 °F /  -11.6 °C 1016.8 in /  34428.8 hPa Calm   4.8 mph /  7.7 km/h 95 % 0.0 in /  0 mm
02:37 11.9 °F /  -11.2 °C 11.1 °F /  -11.6 °C 1016.5 in /  34418.7 hPa Calm   3.2 mph /  5.1 km/h 95 % 0.0 in /  0 mm
02:42 11.8 °F /  -11.2 °C 11.0 °F /  -11.7 °C 1016.8 in /  34428.8 hPa Calm   3.2 mph /  5.1 km/h 95 % 0.0 in /  0 mm
02:47 11.8 °F /  -11.2 °C 11.0 °F /  -11.7 °C 1016.8 in /  34428.8 hPa SW 1.6 mph /  2.6 km/h 3.2 mph /  5.1 km/h 95 % 0.0 in /  0 mm
02:52 11.8 °F /  -11.2 °C 11.0 °F /  -11.7 °C 1016.8 in /  34428.8 hPa SSW 1.6 mph /  2.6 km/h 3.2 mph /  5.1 km/h 95 % 0.0 in /  0 mm
02:57 11.8 °F /  -11.2 °C 11.0 °F /  -11.7 °C 1016.5 in /  34418.7 hPa Calm   3.2 mph /  5.1 km/h 95 % 0.0 in /  0 mm
03:02 11.8 °F /  -11.2 °C 11.0 °F /  -11.7 °C 1016.5 in /  34418.7 hPa SSW 1.6 mph /  2.6 km/h 3.2 mph /  5.1 km/h 95 % 0.0 in /  0 mm
03:07 11.7 °F /  -11.3 °C 10.8 °F /  -11.8 °C 1016.8 in /  34428.8 hPa SSW 3.2 mph /  5.1 km/h 4.8 mph /  7.7 km/h 94 % 0.0 in /  0 mm
03:12 11.6 °F /  -11.3 °C 10.8 °F /  -11.8 °C 1016.8 in /  34428.8 hPa SSW 1.6 mph /  2.6 km/h 4.8 mph /  7.7 km/h 95 % 0.0 in /  0 mm
03:17 11.6 °F /  -11.3 °C 10.8 °F /  -11.8 °C 1016.5 in /  34418.7 hPa SSW 1.6 mph /  2.6 km/h 3.2 mph /  5.1 km/h 95 % 0.0 in /  0 mm
03:22 11.5 °F /  -11.4 °C 10.7 °F /  -11.8 °C 1016.5 in /  34418.7 hPa Calm   3.2 mph /  5.1 km/h 95 % 0.0 in /  0 mm
03:32 11.4 °F /  -11.4 °C 10.6 °F /  -11.9 °C 1016.5 in /  34418.7 hPa Calm   3.2 mph /  5.1 km/h 95 % 0.0 in /  0 mm
03:37 11.3 °F /  -11.5 °C 10.5 °F /  -11.9 °C 1016.5 in /  34418.7 hPa Calm   3.2 mph /  5.1 km/h 95 % 0.0 in /  0 mm
03:47 11.3 °F /  -11.5 °C 10.5 °F /  -11.9 °C 1016.5 in /  34418.7 hPa Calm   3.2 mph /  5.1 km/h 95 % 0.0 in /  0 mm
03:52 11.3 °F /  -11.5 °C 10.5 °F /  -11.9 °C 1016.8 in /  34428.8 hPa Calm   3.2 mph /  5.1 km/h 95 % 0.0 in /  0 mm
03:57 11.3 °F /  -11.5 °C 10.5 °F /  -11.9 °C 1016.5 in /  34418.7 hPa Calm   3.2 mph /  5.1 km/h 95 % 0.0 in /  0 mm
04:02 11.2 °F /  -11.6 °C 10.4 °F /  -12 °C 1016.5 in /  34418.7 hPa Calm   3.2 mph /  5.1 km/h 95 % 0.0 in /  0 mm
04:12 11.2 °F /  -11.6 °C 10.4 °F /  -12 °C 1016.5 in /  34418.7 hPa Calm   1.6 mph /  2.6 km/h 95 % 0.0 in /  0 mm
04:17 11.1 °F /  -11.6 °C 10.3 °F /  -12.1 °C 1016.5 in /  34418.7 hPa Calm     95 % 0.0 in /  0 mm
04:22 10.9 °F /  -11.7 °C 10.1 °F /  -12.2 °C 1016.5 in /  34418.7 hPa Calm     95 % 0.0 in /  0 mm
04:32 10.8 °F /  -11.8 °C 10.2 °F /  -12.1 °C 1016.5 in /  34418.7 hPa Calm     96 % 0.0 in /  0 mm
04:42 10.8 °F /  -11.8 °C 10.2 °F /  -12.1 °C 1016.5 in /  34418.7 hPa Calm     96 % 0.0 in /  0 mm
04:52 10.8 °F /  -11.8 °C 10.2 °F /  -12.1 °C 1016.5 in /  34418.7 hPa Calm     96 % 0.0 in /  0 mm
04:57 10.9 °F /  -11.7 °C 10.3 °F /  -12.1 °C 1016.5 in /  34418.7 hPa Calm     96 % 0.0 in /  0 mm
05:02 10.9 °F /  -11.7 °C 10.3 °F /  -12.1 °C 1016.1 in /  34405.1 hPa Calm     96 % 0.0 in /  0 mm
05:07 10.9 °F /  -11.7 °C 10.3 °F /  -12.1 °C 1016.1 in /  34405.1 hPa Calm     96 % 0.0 in /  0 mm
05:17 10.8 °F /  -11.8 °C 10.2 °F /  -12.1 °C 1016.1 in /  34405.1 hPa Calm     96 % 0.0 in /  0 mm
05:27 10.9 °F /  -11.7 °C 10.3 °F /  -12.1 °C 1016.1 in /  34405.1 hPa Calm     96 % 0.0 in /  0 mm
05:42 11.2 °F /  -11.6 °C 10.6 °F /  -11.9 °C 1016.1 in /  34405.1 hPa Calm     96 % 0.0 in /  0 mm
05:47 11.1 °F /  -11.6 °C 10.5 °F /  -11.9 °C 1016.1 in /  34405.1 hPa Calm     96 % 0.0 in /  0 mm
05:52 11.1 °F /  -11.6 °C 10.5 °F /  -11.9 °C 1016.1 in /  34405.1 hPa Calm     96 % 0.0 in /  0 mm
05:57 10.9 °F /  -11.7 °C 10.3 °F /  -12.1 °C 1016.1 in /  34405.1 hPa Calm     96 % 0.0 in /  0 mm
06:02 10.9 °F /  -11.7 °C 10.3 °F /  -12.1 °C 1016.1 in /  34405.1 hPa Calm     96 % 0.0 in /  0 mm
06:07 10.8 °F /  -11.8 °C 10.2 °F /  -12.1 °C 1016.1 in /  34405.1 hPa Calm     96 % 0.0 in /  0 mm
06:12 10.9 °F /  -11.7 °C 10.3 °F /  -12.1 °C 1016.1 in /  34405.1 hPa Calm     96 % 0.0 in /  0 mm
06:17 10.9 °F /  -11.7 °C 10.3 °F /  -12.1 °C 1016.1 in /  34405.1 hPa Calm     96 % 0.0 in /  0 mm
06:22 10.9 °F /  -11.7 °C 10.3 °F /  -12.1 °C 1016.1 in /  34405.1 hPa Calm     96 % 0.0 in /  0 mm
06:27 11.0 °F /  -11.7 °C 10.4 °F /  -12 °C 1016.1 in /  34405.1 hPa Calm     96 % 0.0 in /  0 mm
06:32 11.0 °F /  -11.7 °C 10.4 °F /  -12 °C 1015.8 in /  34395 hPa Calm     96 % 0.0 in /  0 mm
06:42 10.9 °F /  -11.7 °C 10.3 °F /  -12.1 °C 1015.8 in /  34395 hPa Calm     96 % 0.0 in /  0 mm
06:52 10.9 °F /  -11.7 °C 10.3 °F /  -12.1 °C 1015.8 in /  34395 hPa Calm     96 % 0.0 in /  0 mm
06:57 10.9 °F /  -11.7 °C 10.3 °F /  -12.1 °C 1015.8 in /  34395 hPa Calm     96 % 0.0 in /  0 mm
07:02 10.8 °F /  -11.8 °C 10.2 °F /  -12.1 °C 1016.1 in /  34405.1 hPa Calm     96 % 0.0 in /  0 mm
07:17 11.1 °F /  -11.6 °C 10.6 °F /  -11.9 °C 1016.1 in /  34405.1 hPa Calm     97 % 0.0 in /  0 mm
07:22 11.2 °F /  -11.6 °C 10.7 °F /  -11.8 °C 1016.1 in /  34405.1 hPa Calm     97 % 0.0 in /  0 mm
07:32 11.4 °F /  -11.4 °C 10.8 °F /  -11.8 °C 1016.1 in /  34405.1 hPa Calm     96 % 0.0 in /  0 mm
07:42 11.6 °F /  -11.3 °C 11.0 °F /  -11.7 °C 1016.1 in /  34405.1 hPa Calm     96 % 0.0 in /  0 mm
07:47 11.7 °F /  -11.3 °C 11.1 °F /  -11.6 °C 1016.1 in /  34405.1 hPa Calm     96 % 0.0 in /  0 mm
07:52 11.7 °F /  -11.3 °C 11.1 °F /  -11.6 °C 1016.5 in /  34418.7 hPa WNW 1.6 mph /  2.6 km/h   96 % 0.0 in /  0 mm
08:02 12.0 °F /  -11.1 °C 11.4 °F /  -11.4 °C 1016.5 in /  34418.7 hPa West 1.6 mph /  2.6 km/h 6.4 mph /  10.3 km/h 96 % 0.0 in /  0 mm
08:12 12.7 °F /  -10.7 °C 12.1 °F /  -11.1 °C 1016.8 in /  34428.8 hPa West 4.8 mph /  7.7 km/h 6.4 mph /  10.3 km/h 96 % 0.0 in /  0 mm
08:17 13.2 °F /  -10.4 °C 12.4 °F /  -10.9 °C 1016.8 in /  34428.8 hPa West 4.8 mph /  7.7 km/h 6.4 mph /  10.3 km/h 95 % 0.0 in /  0 mm
08:22 13.7 °F /  -10.2 °C 12.6 °F /  -10.8 °C 1016.8 in /  34428.8 hPa SW 6.4 mph /  10.3 km/h 6.4 mph /  10.3 km/h 93 % 0.0 in /  0 mm
08:32 14.6 °F /  -9.7 °C 12.8 °F /  -10.7 °C 1016.8 in /  34428.8 hPa WSW 9.7 mph /  15.6 km/h 17.7 mph /  28.5 km/h 89 % 0.0 in /  0 mm
08:42 14.7 °F /  -9.6 °C 12.7 °F /  -10.7 °C 1016.8 in /  34428.8 hPa SW 12.9 mph /  20.8 km/h 20.9 mph /  33.6 km/h 88 % 0.0 in /  0 mm
08:52 14.7 °F /  -9.6 °C 12.7 °F /  -10.7 °C 1017.2 in /  34442.4 hPa WSW 16.1 mph /  25.9 km/h 20.9 mph /  33.6 km/h 88 % 0.0 in /  0 mm
08:57 14.7 °F /  -9.6 °C 12.7 °F /  -10.7 °C 1017.2 in /  34442.4 hPa SW 9.7 mph /  15.6 km/h 19.3 mph /  31.1 km/h 88 % 0.0 in /  0 mm
09:02 14.6 °F /  -9.7 °C 12.6 °F /  -10.8 °C 1017.2 in /  34442.4 hPa SW 9.7 mph /  15.6 km/h 19.3 mph /  31.1 km/h 88 % 0.0 in /  0 mm
09:12 14.6 °F /  -9.7 °C 12.6 °F /  -10.8 °C 1017.5 in /  34452.6 hPa SW 8.0 mph /  12.9 km/h 17.7 mph /  28.5 km/h 88 % 0.0 in /  0 mm
09:17 14.4 °F /  -9.8 °C 12.6 °F /  -10.8 °C 1017.5 in /  34452.6 hPa SW 8.0 mph /  12.9 km/h 14.5 mph /  23.3 km/h 89 % 0.0 in /  0 mm
09:27 14.2 °F /  -9.9 °C 12.6 °F /  -10.8 °C 1017.5 in /  34452.6 hPa SSW 4.8 mph /  7.7 km/h 12.9 mph /  20.8 km/h 90 % 0.0 in /  0 mm
09:32 14.2 °F /  -9.9 °C 12.6 °F /  -10.8 °C 1017.5 in /  34452.6 hPa SW 8.0 mph /  12.9 km/h 12.9 mph /  20.8 km/h 90 % 0.0 in /  0 mm
09:42 14.4 °F /  -9.8 °C 12.8 °F /  -10.7 °C 1017.5 in /  34452.6 hPa SW 6.4 mph /  10.3 km/h 9.7 mph /  15.6 km/h 90 % 0.0 in /  0 mm
09:47 14.6 °F /  -9.7 °C 12.8 °F /  -10.7 °C 1017.5 in /  34452.6 hPa SW 4.8 mph /  7.7 km/h 14.5 mph /  23.3 km/h 89 % 0.0 in /  0 mm
09:52 14.7 °F /  -9.6 °C 12.9 °F /  -10.6 °C 1017.8 in /  34462.7 hPa SW 11.3 mph /  18.2 km/h 14.5 mph /  23.3 km/h 89 % 0.0 in /  0 mm
10:02 14.8 °F /  -9.6 °C 12.8 °F /  -10.7 °C 1017.8 in /  34462.7 hPa SSW 6.4 mph /  10.3 km/h 16.1 mph /  25.9 km/h 88 % 0.0 in /  0 mm
10:17 15.1 °F /  -9.4 °C 13.1 °F /  -10.5 °C 1017.8 in /  34462.7 hPa SW 6.4 mph /  10.3 km/h 14.5 mph /  23.3 km/h 88 % 0.0 in /  0 mm
10:22 15.1 °F /  -9.4 °C 13.1 °F /  -10.5 °C 1018.2 in /  34476.3 hPa WSW 9.7 mph /  15.6 km/h 14.5 mph /  23.3 km/h 88 % 0.0 in /  0 mm
10:27 15.1 °F /  -9.4 °C 13.1 °F /  -10.5 °C 1018.2 in /  34476.3 hPa West 3.2 mph /  5.1 km/h 12.9 mph /  20.8 km/h 88 % 0.0 in /  0 mm
10:32 14.9 °F /  -9.5 °C 13.1 °F /  -10.5 °C 1018.2 in /  34476.3 hPa WSW 4.8 mph /  7.7 km/h 12.9 mph /  20.8 km/h 89 % 0.0 in /  0 mm
10:42 14.7 °F /  -9.6 °C 13.2 °F /  -10.4 °C 1018.2 in /  34476.3 hPa SW 9.7 mph /  15.6 km/h 17.7 mph /  28.5 km/h 91 % 0.3 in /  7.62 mm
10:52 14.6 °F /  -9.7 °C 13.3 °F /  -10.4 °C 1018.5 in /  34486.4 hPa WSW 11.3 mph /  18.2 km/h 30.6 mph /  49.2 km/h 92 % 0.3 in /  7.62 mm
11:02 14.6 °F /  -9.7 °C 13.1 °F /  -10.5 °C 1018.5 in /  34486.4 hPa SW 22.5 mph /  36.2 km/h 22.5 mph /  36.2 km/h 91 % 0.3 in /  7.62 mm
11:12 14.6 °F /  -9.7 °C 13.1 °F /  -10.5 °C 1018.5 in /  34486.4 hPa SW 9.7 mph /  15.6 km/h 24.1 mph /  38.8 km/h 91 % 0.3 in /  7.62 mm
11:22 14.6 °F /  -9.7 °C 13.0 °F /  -10.6 °C 1018.8 in /  34496.6 hPa SW 11.3 mph /  18.2 km/h 24.1 mph /  38.8 km/h 90 % 0.3 in /  7.62 mm
11:27 14.4 °F /  -9.8 °C 12.4 °F /  -10.9 °C 1018.8 in /  34496.6 hPa West 11.3 mph /  18.2 km/h 22.5 mph /  36.2 km/h 88 % 0.3 in /  7.62 mm
11:37 13.9 °F /  -10.1 °C 10.9 °F /  -11.7 °C 1018.8 in /  34496.6 hPa West 9.7 mph /  15.6 km/h 30.6 mph /  49.2 km/h 82 % 0.0 in /  0 mm
11:42 13.9 °F /  -10.1 °C 10.9 °F /  -11.7 °C 1019.2 in /  34510.1 hPa West 22.5 mph /  36.2 km/h 30.6 mph /  49.2 km/h 82 % 0.0 in /  0 mm
11:52 13.8 °F /  -10.1 °C 11.1 °F /  -11.6 °C 1018.8 in /  34496.6 hPa WNW 14.5 mph /  23.3 km/h 30.6 mph /  49.2 km/h 84 % 0.0 in /  0 mm
12:02 13.9 °F /  -10.1 °C 11.4 °F /  -11.4 °C 1018.8 in /  34496.6 hPa West 11.3 mph /  18.2 km/h 30.6 mph /  49.2 km/h 85 % 0.0 in /  0 mm
12:12 14.1 °F /  -9.9 °C 11.8 °F /  -11.2 °C 1019.2 in /  34510.1 hPa WSW 9.7 mph /  15.6 km/h 29.0 mph /  46.7 km/h 86 % 0.0 in /  0 mm
12:17 14.1 °F /  -9.9 °C 12.1 °F /  -11.1 °C 1019.2 in /  34510.1 hPa SSW 3.2 mph /  5.1 km/h 20.9 mph /  33.6 km/h 88 % 0.0 in /  0 mm
12:22 14.2 °F /  -9.9 °C 12.4 °F /  -10.9 °C 1018.8 in /  34496.6 hPa SW 4.8 mph /  7.7 km/h 20.9 mph /  33.6 km/h 89 % 0.0 in /  0 mm
12:32 14.3 °F /  -9.8 °C 12.7 °F /  -10.7 °C 1019.2 in /  34510.1 hPa SW 4.8 mph /  7.7 km/h 16.1 mph /  25.9 km/h 90 % 0.0 in /  0 mm
12:37 14.3 °F /  -9.8 °C 12.9 °F /  -10.6 °C 1018.8 in /  34496.6 hPa SW 4.8 mph /  7.7 km/h 16.1 mph /  25.9 km/h 91 % 0.0 in /  0 mm
12:42 14.3 °F /  -9.8 °C 12.5 °F /  -10.8 °C 1019.2 in /  34510.1 hPa SW 12.9 mph /  20.8 km/h 16.1 mph /  25.9 km/h 89 % 0.0 in /  0 mm
12:47 14.4 °F /  -9.8 °C 12.8 °F /  -10.7 °C 1019.2 in /  34510.1 hPa WSW 6.4 mph /  10.3 km/h 22.5 mph /  36.2 km/h 90 % 0.3 in /  7.62 mm
12:52 14.4 °F /  -9.8 °C 12.8 °F /  -10.7 °C 1019.2 in /  34510.1 hPa SW 6.4 mph /  10.3 km/h 22.5 mph /  36.2 km/h 90 % 0.3 in /  7.62 mm
12:57 14.4 °F /  -9.8 °C 12.4 °F /  -10.9 °C 1019.2 in /  34510.1 hPa SW 16.1 mph /  25.9 km/h 22.5 mph /  36.2 km/h 88 % 0.3 in /  7.62 mm
13:02 14.4 °F /  -9.8 °C 12.6 °F /  -10.8 °C 1018.8 in /  34496.6 hPa SSW 6.4 mph /  10.3 km/h 22.5 mph /  36.2 km/h 89 % 0.3 in /  7.62 mm
13:12 14.3 °F /  -9.8 °C 12.5 °F /  -10.8 °C 1018.8 in /  34496.6 hPa WSW 9.7 mph /  15.6 km/h 22.5 mph /  36.2 km/h 89 % 0.3 in /  7.62 mm
13:17 14.2 °F /  -9.9 °C 12.4 °F /  -10.9 °C 1018.8 in /  34496.6 hPa WSW 9.7 mph /  15.6 km/h 22.5 mph /  36.2 km/h 89 % 0.5 in /  12.7 mm
13:22 14.2 °F /  -9.9 °C 12.4 °F /  -10.9 °C 1018.8 in /  34496.6 hPa SW 11.3 mph /  18.2 km/h 22.5 mph /  36.2 km/h 89 % 0.5 in /  12.7 mm
13:32 14.3 °F /  -9.8 °C 12.5 °F /  -10.8 °C 1018.8 in /  34496.6 hPa SSW 9.7 mph /  15.6 km/h 17.7 mph /  28.5 km/h 89 % 0.5 in /  12.7 mm
13:42 14.5 °F /  -9.7 °C 12.5 °F /  -10.8 °C 1018.8 in /  34496.6 hPa SW 12.9 mph /  20.8 km/h 19.3 mph /  31.1 km/h 88 % 0.5 in /  12.7 mm
13:52 14.6 °F /  -9.7 °C 12.5 °F /  -10.8 °C 1018.5 in /  34486.4 hPa WSW 14.5 mph /  23.3 km/h 22.5 mph /  36.2 km/h 87 % 0.5 in /  12.7 mm
14:02 14.7 °F /  -9.6 °C 12.6 °F /  -10.8 °C 1018.5 in /  34486.4 hPa SW 19.3 mph /  31.1 km/h 22.5 mph /  36.2 km/h 87 % 0.5 in /  12.7 mm
14:12 14.8 °F /  -9.6 °C 12.8 °F /  -10.7 °C 1018.2 in /  34476.3 hPa SW 16.1 mph /  25.9 km/h 24.1 mph /  38.8 km/h 88 % 0.3 in /  7.62 mm
14:17 14.7 °F /  -9.6 °C 12.6 °F /  -10.8 °C 1018.2 in /  34476.3 hPa SW 9.7 mph /  15.6 km/h 24.1 mph /  38.8 km/h 87 % 0.0 in /  0 mm
14:22 14.7 °F /  -9.6 °C 12.4 °F /  -10.9 °C 1018.2 in /  34476.3 hPa SW 16.1 mph /  25.9 km/h 32.2 mph /  51.8 km/h 86 % 0.0 in /  0 mm
14:32 14.8 °F /  -9.6 °C 12.5 °F /  -10.8 °C 1018.2 in /  34476.3 hPa SW 14.5 mph /  23.3 km/h 32.2 mph /  51.8 km/h 86 % 0.0 in /  0 mm
14:37 14.8 °F /  -9.6 °C 12.5 °F /  -10.8 °C 1018.2 in /  34476.3 hPa SSW 12.9 mph /  20.8 km/h 27.4 mph /  44.1 km/h 86 % 0.0 in /  0 mm
14:42 14.8 °F /  -9.6 °C 12.7 °F /  -10.7 °C 1018.2 in /  34476.3 hPa WSW 6.4 mph /  10.3 km/h 27.4 mph /  44.1 km/h 87 % 0.0 in /  0 mm
14:47 14.9 °F /  -9.5 °C 12.8 °F /  -10.7 °C 1017.8 in /  34462.7 hPa SW 14.5 mph /  23.3 km/h 27.4 mph /  44.1 km/h 87 % 0.0 in /  0 mm
14:52 14.8 °F /  -9.6 °C 12.7 °F /  -10.7 °C 1018.2 in /  34476.3 hPa SW 12.9 mph /  20.8 km/h 27.4 mph /  44.1 km/h 87 % 0.0 in /  0 mm
15:02 14.7 °F /  -9.6 °C 12.7 °F /  -10.7 °C 1017.8 in /  34462.7 hPa SW 12.9 mph /  20.8 km/h 22.5 mph /  36.2 km/h 88 % 0.0 in /  0 mm
15:12 14.7 °F /  -9.6 °C 12.7 °F /  -10.7 °C 1017.8 in /  34462.7 hPa SSW 14.5 mph /  23.3 km/h 19.3 mph /  31.1 km/h 88 % 0.0 in /  0 mm
15:17 14.8 °F /  -9.6 °C 12.8 °F /  -10.7 °C 1017.8 in /  34462.7 hPa SW 12.9 mph /  20.8 km/h 24.1 mph /  38.8 km/h 88 % 0.0 in /  0 mm
15:22 14.8 °F /  -9.6 °C 12.8 °F /  -10.7 °C 1017.8 in /  34462.7 hPa WSW 12.9 mph /  20.8 km/h 24.1 mph /  38.8 km/h 88 % 0.0 in /  0 mm
15:27 14.8 °F /  -9.6 °C 12.7 °F /  -10.7 °C 1017.8 in /  34462.7 hPa WSW 8.0 mph /  12.9 km/h 22.5 mph /  36.2 km/h 87 % 0.0 in /  0 mm
15:32 14.7 °F /  -9.6 °C 12.6 °F /  -10.8 °C 1017.8 in /  34462.7 hPa WSW 11.3 mph /  18.2 km/h 22.5 mph /  36.2 km/h 87 % 0.3 in /  7.62 mm
15:37 14.0 °F /  -10 °C 11.5 °F /  -11.4 °C 1017.8 in /  34462.7 hPa West 12.9 mph /  20.8 km/h 19.3 mph /  31.1 km/h 85 % 0.3 in /  7.62 mm
15:42 13.6 °F /  -10.2 °C 11.6 °F /  -11.3 °C 1017.8 in /  34462.7 hPa WSW 8.0 mph /  12.9 km/h 22.5 mph /  36.2 km/h 88 % 0.5 in /  12.7 mm
15:47 13.4 °F /  -10.3 °C 11.6 °F /  -11.3 °C 1017.8 in /  34462.7 hPa WSW 4.8 mph /  7.7 km/h 22.5 mph /  36.2 km/h 89 % 0.5 in /  12.7 mm
15:52 13.2 °F /  -10.4 °C 11.6 °F /  -11.3 °C 1017.8 in /  34462.7 hPa West 4.8 mph /  7.7 km/h 22.5 mph /  36.2 km/h 90 % 0.5 in /  12.7 mm
15:57 13.4 °F /  -10.3 °C 12.0 °F /  -11.1 °C 1017.8 in /  34462.7 hPa WSW 4.8 mph /  7.7 km/h 16.1 mph /  25.9 km/h 91 % 0.5 in /  12.7 mm
16:02 13.6 °F /  -10.2 °C 12.0 °F /  -11.1 °C 1017.8 in /  34462.7 hPa West 3.2 mph /  5.1 km/h 16.1 mph /  25.9 km/h 90 % 0.5 in /  12.7 mm
16:12 14.3 °F /  -9.8 °C 12.0 °F /  -11.1 °C 1017.8 in /  34462.7 hPa WSW 8.0 mph /  12.9 km/h 29.0 mph /  46.7 km/h 86 % 0.5 in /  12.7 mm
16:17 14.4 °F /  -9.8 °C 11.9 °F /  -11.2 °C 1017.8 in /  34462.7 hPa SW 9.7 mph /  15.6 km/h 29.0 mph /  46.7 km/h 85 % 0.5 in /  12.7 mm
16:22 14.7 °F /  -9.6 °C 12.0 °F /  -11.1 °C 1017.8 in /  34462.7 hPa SW 20.9 mph /  33.6 km/h 20.9 mph /  33.6 km/h 84 % 0.5 in /  12.7 mm
16:27 14.9 °F /  -9.5 °C 12.0 °F /  -11.1 °C 1017.8 in /  34462.7 hPa SSW 12.9 mph /  20.8 km/h 24.1 mph /  38.8 km/h 83 % 0.5 in /  12.7 mm
16:37 15.3 °F /  -9.3 °C 11.9 °F /  -11.2 °C 1017.8 in /  34462.7 hPa SW 14.5 mph /  23.3 km/h 25.7 mph /  41.4 km/h 80 % 0.3 in /  7.62 mm
16:42 15.3 °F /  -9.3 °C 11.9 °F /  -11.2 °C 1017.8 in /  34462.7 hPa SSW 4.8 mph /  7.7 km/h 25.7 mph /  41.4 km/h 80 % 0.0 in /  0 mm
16:47 15.3 °F /  -9.3 °C 11.7 °F /  -11.3 °C 1018.2 in /  34476.3 hPa WSW 14.5 mph /  23.3 km/h 25.7 mph /  41.4 km/h 79 % 0.0 in /  0 mm
16:57 15.3 °F /  -9.3 °C 11.9 °F /  -11.2 °C 1018.2 in /  34476.3 hPa West 14.5 mph /  23.3 km/h 22.5 mph /  36.2 km/h 80 % 0.0 in /  0 mm
17:02 15.3 °F /  -9.3 °C 11.7 °F /  -11.3 °C 1018.2 in /  34476.3 hPa WSW 8.0 mph /  12.9 km/h 22.5 mph /  36.2 km/h 79 % 0.0 in /  0 mm
17:07 15.3 °F /  -9.3 °C 11.9 °F /  -11.2 °C 1018.2 in /  34476.3 hPa WSW 6.4 mph /  10.3 km/h 20.9 mph /  33.6 km/h 80 % 0.0 in /  0 mm
17:12 15.3 °F /  -9.3 °C 11.1 °F /  -11.6 °C 1018.2 in /  34476.3 hPa WSW 27.4 mph /  44.1 km/h 27.4 mph /  44.1 km/h 76 % 0.0 in /  0 mm
17:22 15.3 °F /  -9.3 °C 10.7 °F /  -11.8 °C 1017.8 in /  34462.7 hPa West 8.0 mph /  12.9 km/h 32.2 mph /  51.8 km/h 74 % 0.0 in /  0 mm
17:32 15.1 °F /  -9.4 °C 11.5 °F /  -11.4 °C 1017.8 in /  34462.7 hPa SSW 9.7 mph /  15.6 km/h 32.2 mph /  51.8 km/h 79 % 0.0 in /  0 mm
17:37 15.1 °F /  -9.4 °C 11.3 °F /  -11.5 °C 1017.8 in /  34462.7 hPa SW 24.1 mph /  38.8 km/h 24.1 mph /  38.8 km/h 78 % 0.0 in /  0 mm
17:47 15.2 °F /  -9.3 °C 11.0 °F /  -11.7 °C 1018.2 in /  34476.3 hPa WSW 20.9 mph /  33.6 km/h 30.6 mph /  49.2 km/h 76 % 0.0 in /  0 mm
17:52 15.1 °F /  -9.4 °C 10.7 °F /  -11.8 °C 1017.8 in /  34462.7 hPa SW 14.5 mph /  23.3 km/h 30.6 mph /  49.2 km/h 75 % 0.0 in /  0 mm
18:02 15.0 °F /  -9.4 °C 10.6 °F /  -11.9 °C 1018.2 in /  34476.3 hPa SW 11.3 mph /  18.2 km/h 30.6 mph /  49.2 km/h 75 % 0.0 in /  0 mm
18:07 14.8 °F /  -9.6 °C 10.4 °F /  -12 °C 1018.2 in /  34476.3 hPa WSW 25.7 mph /  41.4 km/h 27.4 mph /  44.1 km/h 75 % 0.0 in /  0 mm
18:17 14.7 °F /  -9.6 °C 10.5 °F /  -11.9 °C 1018.5 in /  34486.4 hPa SSW 9.7 mph /  15.6 km/h 27.4 mph /  44.1 km/h 76 % 0.0 in /  0 mm
18:22 14.7 °F /  -9.6 °C 10.7 °F /  -11.8 °C 1018.5 in /  34486.4 hPa SSW 11.3 mph /  18.2 km/h 27.4 mph /  44.1 km/h 77 % 0.0 in /  0 mm
18:32 14.4 °F /  -9.8 °C 10.4 °F /  -12 °C 1018.5 in /  34486.4 hPa SW 12.9 mph /  20.8 km/h 29.0 mph /  46.7 km/h 77 % 0.0 in /  0 mm
18:42 14.2 °F /  -9.9 °C 10.6 °F /  -11.9 °C 1018.5 in /  34486.4 hPa SW 12.9 mph /  20.8 km/h 24.1 mph /  38.8 km/h 79 % 0.0 in /  0 mm
18:47 14.1 °F /  -9.9 °C 10.5 °F /  -11.9 °C 1018.5 in /  34486.4 hPa SW 12.9 mph /  20.8 km/h 20.9 mph /  33.6 km/h 79 % 0.0 in /  0 mm
18:52 13.9 °F /  -10.1 °C 10.3 °F /  -12.1 °C 1018.5 in /  34486.4 hPa SW 12.9 mph /  20.8 km/h 20.9 mph /  33.6 km/h 79 % 0.0 in /  0 mm
19:02 13.7 °F /  -10.2 °C 10.3 °F /  -12.1 °C 1018.8 in /  34496.6 hPa SW 8.0 mph /  12.9 km/h 20.9 mph /  33.6 km/h 80 % 0.0 in /  0 mm
19:12 13.5 °F /  -10.3 °C 10.3 °F /  -12.1 °C 1018.8 in /  34496.6 hPa SW 11.3 mph /  18.2 km/h 19.3 mph /  31.1 km/h 81 % 0.0 in /  0 mm
19:17 13.5 °F /  -10.3 °C 10.3 °F /  -12.1 °C 1018.8 in /  34496.6 hPa SW 12.9 mph /  20.8 km/h 19.3 mph /  31.1 km/h 81 % 0.0 in /  0 mm
19:22 13.4 °F /  -10.3 °C 10.2 °F /  -12.1 °C 1018.8 in /  34496.6 hPa SW 9.7 mph /  15.6 km/h 20.9 mph /  33.6 km/h 81 % 0.0 in /  0 mm
19:27 13.4 °F /  -10.3 °C 10.2 °F /  -12.1 °C 1019.2 in /  34510.1 hPa SW 14.5 mph /  23.3 km/h 20.9 mph /  33.6 km/h 81 % 0.0 in /  0 mm
19:32 13.3 °F /  -10.4 °C 9.9 °F /  -12.3 °C 1019.2 in /  34510.1 hPa SW 8.0 mph /  12.9 km/h 20.9 mph /  33.6 km/h 80 % 0.0 in /  0 mm
19:37 13.2 °F /  -10.4 °C 9.8 °F /  -12.3 °C 1019.2 in /  34510.1 hPa WSW 4.8 mph /  7.7 km/h 20.9 mph /  33.6 km/h 80 % 0.0 in /  0 mm
19:42 13.2 °F /  -10.4 °C 9.8 °F /  -12.3 °C 1019.2 in /  34510.1 hPa WSW 12.9 mph /  20.8 km/h 19.3 mph /  31.1 km/h 80 % 0.0 in /  0 mm
19:47 13.1 °F /  -10.5 °C 9.7 °F /  -12.4 °C 1019.2 in /  34510.1 hPa WSW 9.7 mph /  15.6 km/h 19.3 mph /  31.1 km/h 80 % 0.0 in /  0 mm
19:52 13.1 °F /  -10.5 °C 9.7 °F /  -12.4 °C 1019.5 in /  34520.3 hPa WSW 12.9 mph /  20.8 km/h 20.9 mph /  33.6 km/h 80 % 0.0 in /  0 mm
20:02 12.8 °F /  -10.7 °C 9.6 °F /  -12.4 °C 1019.5 in /  34520.3 hPa SW 6.4 mph /  10.3 km/h 20.9 mph /  33.6 km/h 81 % 0.0 in /  0 mm
20:07 12.8 °F /  -10.7 °C 9.6 °F /  -12.4 °C 1019.5 in /  34520.3 hPa West 9.7 mph /  15.6 km/h 16.1 mph /  25.9 km/h 81 % 0.0 in /  0 mm
20:12 12.7 °F /  -10.7 °C 9.5 °F /  -12.5 °C 1019.5 in /  34520.3 hPa SSW 4.8 mph /  7.7 km/h 17.7 mph /  28.5 km/h 81 % 0.0 in /  0 mm
20:17 12.7 °F /  -10.7 °C 9.5 °F /  -12.5 °C 1019.5 in /  34520.3 hPa SW 6.4 mph /  10.3 km/h 17.7 mph /  28.5 km/h 81 % 0.0 in /  0 mm
20:22 12.7 °F /  -10.7 °C 9.2 °F /  -12.7 °C 1019.9 in /  34533.8 hPa WSW 9.7 mph /  15.6 km/h 17.7 mph /  28.5 km/h 79 % 0.0 in /  0 mm
20:27 12.8 °F /  -10.7 °C 9.1 °F /  -12.7 °C 1019.9 in /  34533.8 hPa WSW 11.3 mph /  18.2 km/h 17.7 mph /  28.5 km/h 78 % 0.0 in /  0 mm
20:32 12.9 °F /  -10.6 °C 9.0 °F /  -12.8 °C 1019.9 in /  34533.8 hPa West 14.5 mph /  23.3 km/h 17.7 mph /  28.5 km/h 77 % 0.0 in /  0 mm
20:42 12.8 °F /  -10.7 °C 8.7 °F /  -12.9 °C 1019.9 in /  34533.8 hPa SW 6.4 mph /  10.3 km/h 22.5 mph /  36.2 km/h 76 % 0.0 in /  0 mm
20:47 12.7 °F /  -10.7 °C 8.8 °F /  -12.9 °C 1019.9 in /  34533.8 hPa SW 6.4 mph /  10.3 km/h 22.5 mph /  36.2 km/h 77 % 0.0 in /  0 mm
20:52 12.5 °F /  -10.8 °C 8.6 °F /  -13 °C 1019.9 in /  34533.8 hPa SSW 3.2 mph /  5.1 km/h 12.9 mph /  20.8 km/h 77 % 0.0 in /  0 mm
20:57 12.4 °F /  -10.9 °C 8.9 °F /  -12.8 °C 1019.9 in /  34533.8 hPa WSW 8.0 mph /  12.9 km/h 12.9 mph /  20.8 km/h 79 % 0.0 in /  0 mm
21:02 12.3 °F /  -10.9 °C 8.8 °F /  -12.9 °C 1019.9 in /  34533.8 hPa SW 12.9 mph /  20.8 km/h 12.9 mph /  20.8 km/h 79 % 0.0 in /  0 mm
21:07 12.4 °F /  -10.9 °C 8.7 °F /  -12.9 °C 1019.9 in /  34533.8 hPa WSW 14.5 mph /  23.3 km/h 22.5 mph /  36.2 km/h 78 % 0.0 in /  0 mm
21:12 12.3 °F /  -10.9 °C 8.8 °F /  -12.9 °C 1019.9 in /  34533.8 hPa SW 8.0 mph /  12.9 km/h 22.5 mph /  36.2 km/h 79 % 0.0 in /  0 mm
21:17 12.2 °F /  -11 °C 8.5 °F /  -13.1 °C 1020.2 in /  34544 hPa SW 8.0 mph /  12.9 km/h 22.5 mph /  36.2 km/h 78 % 0.0 in /  0 mm
21:22 12.2 °F /  -11 °C 8.3 °F /  -13.2 °C 1020.2 in /  34544 hPa SW 9.7 mph /  15.6 km/h 20.9 mph /  33.6 km/h 77 % 0.0 in /  0 mm
21:32 12.1 °F /  -11.1 °C 8.2 °F /  -13.2 °C 1020.2 in /  34544 hPa SSW 4.8 mph /  7.7 km/h 22.5 mph /  36.2 km/h 77 % 0.0 in /  0 mm
21:42 11.9 °F /  -11.2 °C 7.8 °F /  -13.4 °C 1020.2 in /  34544 hPa WSW 6.4 mph /  10.3 km/h 16.1 mph /  25.9 km/h 76 % 0.0 in /  0 mm
21:47 12.0 °F /  -11.1 °C 7.7 °F /  -13.5 °C 1020.2 in /  34544 hPa SW 25.7 mph /  41.4 km/h 25.7 mph /  41.4 km/h 75 % 0.0 in /  0 mm
21:52 12.1 °F /  -11.1 °C 7.6 °F /  -13.6 °C 1020.2 in /  34544 hPa WSW 9.7 mph /  15.6 km/h 25.7 mph /  41.4 km/h 74 % 0.0 in /  0 mm
21:57 12.1 °F /  -11.1 °C 7.6 °F /  -13.6 °C 1020.2 in /  34544 hPa WSW 14.5 mph /  23.3 km/h 25.7 mph /  41.4 km/h 74 % 0.0 in /  0 mm
22:02 12.2 °F /  -11 °C 7.7 °F /  -13.5 °C 1020.2 in /  34544 hPa West 6.4 mph /  10.3 km/h 25.7 mph /  41.4 km/h 74 % 0.0 in /  0 mm
22:12 12.1 °F /  -11.1 °C 7.8 °F /  -13.4 °C 1020.2 in /  34544 hPa WSW 12.9 mph /  20.8 km/h 27.4 mph /  44.1 km/h 75 % 0.0 in /  0 mm
22:17 11.9 °F /  -11.2 °C 7.8 °F /  -13.4 °C 1020.2 in /  34544 hPa WSW 11.3 mph /  18.2 km/h 22.5 mph /  36.2 km/h 76 % 0.0 in /  0 mm
22:22 11.8 °F /  -11.2 °C 7.7 °F /  -13.5 °C 1020.2 in /  34544 hPa SW 14.5 mph /  23.3 km/h 22.5 mph /  36.2 km/h 76 % 0.0 in /  0 mm
22:37 11.4 °F /  -11.4 °C 7.7 °F /  -13.5 °C 1020.2 in /  34544 hPa WSW 12.9 mph /  20.8 km/h 24.1 mph /  38.8 km/h 78 % 0.0 in /  0 mm
22:42 11.3 °F /  -11.5 °C 7.6 °F /  -13.6 °C 1020.2 in /  34544 hPa WSW 9.7 mph /  15.6 km/h 25.7 mph /  41.4 km/h 78 % 0.0 in /  0 mm
22:52 11.3 °F /  -11.5 °C 7.8 °F /  -13.4 °C 1020.5 in /  34554.1 hPa WSW 8.0 mph /  12.9 km/h 27.4 mph /  44.1 km/h 79 % 0.0 in /  0 mm
23:02 11.2 °F /  -11.6 °C 7.9 °F /  -13.4 °C 1020.9 in /  34567.7 hPa WSW 12.9 mph /  20.8 km/h 27.4 mph /  44.1 km/h 80 % 0.0 in /  0 mm
23:12 10.9 °F /  -11.7 °C 7.8 °F /  -13.4 °C 1020.9 in /  34567.7 hPa SSW 12.9 mph /  20.8 km/h 22.5 mph /  36.2 km/h 81 % 0.0 in /  0 mm
23:17 10.8 °F /  -11.8 °C 7.9 °F /  -13.4 °C 1020.9 in /  34567.7 hPa SSW 9.7 mph /  15.6 km/h 27.4 mph /  44.1 km/h 82 % 0.0 in /  0 mm
23:22 10.8 °F /  -11.8 °C 7.9 °F /  -13.4 °C 1020.9 in /  34567.7 hPa SSW 11.3 mph /  18.2 km/h 27.4 mph /  44.1 km/h 82 % 0.0 in /  0 mm
23:32 10.7 °F /  -11.8 °C 7.8 °F /  -13.4 °C 1020.9 in /  34567.7 hPa SW 6.4 mph /  10.3 km/h 25.7 mph /  41.4 km/h 82 % 0.0 in /  0 mm
23:42 10.5 °F /  -11.9 °C 7.7 °F /  -13.5 °C 1021.2 in /  34577.8 hPa WSW 8.0 mph /  12.9 km/h 24.1 mph /  38.8 km/h 83 % 0.0 in /  0 mm
23:47 10.4 °F /  -12 °C 7.6 °F /  -13.6 °C 1021.2 in /  34577.8 hPa SW 9.7 mph /  15.6 km/h 24.1 mph /  38.8 km/h 83 % 0.0 in /  0 mm
23:52 10.4 °F /  -12 °C 7.6 °F /  -13.6 °C 1020.9 in /  34567.7 hPa WSW 14.5 mph /  23.3 km/h 24.1 mph /  38.8 km/h 83 % 0.0 in /  0 mm
23:57 10.3 °F /  -12.1 °C 7.5 °F /  -13.6 °C 1021.2 in /  34577.8 hPa SW 9.7 mph /  15.6 km/h 24.1 mph /  38.8 km/h 83 % 0.0 in /  0 mm
Meteo18
Compliments of Weather Underground - 4 mb

Script developed by  Jim McMurry - jmcmurry@mwt.net Adapted for the template by  Wim van der Kuil - Leuven-Template.eu

You find our weather info also at:

European Weather Network

Weather Underground

Equipment we use:

Weather-station
Davis Vue

Weather-program
Meteobridge

Weather-server
Raspberry PI 2 B+

Provider
1 and 1

Davis Vue

Meteobridge

Raspberry PI 2 B+

1 and 1